Time;durP1;ratioP1;P1;durP2;ratioP2;P2;SDS_P1;SDS_P2;PMS_P1;PMS_P2;Temp;Humidity;BMP_temperature;BMP_pressure;BME280_temperature;BME280_humidity;BME280_pressure;Samples;Min_cycle;Max_cycle;Signal;HPM_P1;HPM_P2
2023/09/24 00:02:07;;;;;;;;;21.00;20.00;;;;;14.58;65.08;101633.03;5076152;27;45318;-80
2023/09/24 00:04:32;;;;;;;;;22.67;20.00;;;;;14.53;65.95;101632.44;5077002;28;45238;-79
2023/09/24 00:06:58;;;;;;;;;22.33;19.00;;;;;14.49;65.54;101630.88;5076419;28;46088;-80
2023/09/24 00:09:23;;;;;;;;;23.33;21.00;;;;;14.48;65.49;101650.56;5076756;28;45345;-77
2023/09/24 00:11:48;;;;;;;;;27.33;20.33;;;;;14.45;66.13;101631.97;5075989;27;45831;-80
2023/09/24 00:14:14;;;;;;;;;27.50;23.25;;;;;14.48;65.56;101637.19;5074693;28;45407;-79
2023/09/24 00:16:40;;;;;;;;;26.50;21.50;;;;;14.29;66.11;101612.34;5073882;28;46522;-80
2023/09/24 00:19:05;;;;;;;;;20.25;20.00;;;;;14.46;65.92;101639.09;5076172;28;45400;-77
2023/09/24 00:21:31;;;;;;;;;23.75;20.25;;;;;14.40;66.05;101629.53;5074386;28;45411;-77
2023/09/24 00:23:56;;;;;;;;;21.67;21.67;;;;;14.44;66.31;101641.81;5076762;27;45526;-78
2023/09/24 00:26:22;;;;;;;;;21.67;18.33;;;;;14.41;66.68;101638.44;5075868;28;45364;-79
2023/09/24 00:28:48;;;;;;;;;17.00;17.00;;;;;14.43;66.12;101639.19;5075567;28;45439;-77
2023/09/24 00:31:13;;;;;;;;;23.00;21.00;;;;;14.42;66.68;101640.16;5075593;27;45330;-80
2023/09/24 00:33:38;;;;;;;;;18.67;17.33;;;;;14.42;66.39;101642.81;5076120;28;45200;-79
2023/09/24 00:36:05;;;;;;;;;16.00;16.00;;;;;14.41;66.92;101646.44;5075854;28;46160;-76
2023/09/24 00:38:30;;;;;;;;;21.25;19.50;;;;;14.37;66.91;101650.25;5075764;28;45257;-77
2023/09/24 00:40:56;;;;;;;;;16.67;15.00;;;;;14.32;67.48;101652.31;5075683;28;45235;-77
2023/09/24 00:43:39;;;;;;;;;25.00;20.67;;;;;14.30;68.13;101659.56;5076202;28;45334;-79
2023/09/24 00:46:04;;;;;;;;;21.67;16.67;;;;;14.24;67.86;101655.41;5075661;27;46345;-78
2023/09/24 00:48:31;;;;;;;;;15.00;15.00;;;;;14.22;67.74;101664.47;5075812;27;45270;-78
2023/09/24 00:51:14;;;;;;;;;15.33;15.33;;;;;14.15;68.28;101656.75;5075833;27;45246;-77
2023/09/24 00:53:40;;;;;;;;;21.25;19.50;;;;;14.22;68.41;101661.81;5055737;28;45368;-78
2023/09/24 00:56:06;;;;;;;;;18.00;16.00;;;;;14.18;68.20;101656.59;5055162;28;46293;-77
2023/09/24 00:58:34;;;;;;;;;15.33;14.00;;;;;14.27;67.60;101659.72;5055380;28;45425;-79
2023/09/24 01:00:59;;;;;;;;;20.67;15.00;;;;;14.21;67.90;101649.38;5064663;28;45462;-78
2023/09/24 01:03:28;;;;;;;;;21.67;17.33;;;;;14.15;68.50;101635.38;5074725;28;51435;-78
2023/09/24 01:05:54;;;;;;;;;13.00;13.00;;;;;14.21;68.11;101658.25;5075928;27;47158;-78
2023/09/24 01:08:24;;;;;;;;;21.00;15.00;;;;;14.14;68.91;101654.19;5074592;28;45739;-78
2023/09/24 01:10:50;;;;;;;;;15.33;13.00;;;;;14.09;68.52;101651.75;5074025;28;45516;-78
2023/09/24 01:13:20;;;;;;;;;16.67;14.00;;;;;14.08;68.47;101651.84;5075376;27;45369;-76
2023/09/24 01:15:48;;;;;;;;;16.33;15.00;;;;;14.11;68.55;101660.56;5075496;27;47001;-78
2023/09/24 01:18:13;;;;;;;;;13.67;13.00;;;;;14.15;68.52;101662.13;5076845;28;45443;-80
2023/09/24 01:20:40;;;;;;;;;10.33;10.33;;;;;14.17;68.78;101660.22;5078602;28;45471;-79
2023/09/24 01:23:11;;;;;;;;;14.33;12.67;;;;;14.14;68.34;101643.47;5079570;28;45309;-78
2023/09/24 01:25:37;;;;;;;;;17.33;13.00;;;;;14.16;69.02;101647.78;5094605;27;47487;-80
2023/09/24 01:28:04;;;;;;;;;16.33;14.33;;;;;14.11;69.45;101655.22;5079889;27;45298;-78
2023/09/24 01:30:30;;;;;;;;;15.33;15.33;;;;;14.03;69.74;101657.44;5080319;27;45329;-82
2023/09/24 01:32:57;;;;;;;;;14.33;12.33;;;;;13.95;69.74;101654.31;5081883;27;45426;-78
2023/09/24 01:35:27;;;;;;;;;20.00;20.00;;;;;13.85;70.45;101637.03;5082702;28;45318;-79
2023/09/24 01:37:52;;;;;;;;;17.00;16.67;;;;;14.03;69.92;101668.13;5082022;27;45822;-78
2023/09/24 01:40:21;;;;;;;;;15.00;14.33;;;;;14.03;69.85;101670.81;5081033;28;45861;-78
2023/09/24 01:42:47;;;;;;;;;14.33;14.33;;;;;14.04;70.04;101675.19;5077873;28;45409;-81
2023/09/24 01:45:13;;;;;;;;;21.50;15.25;;;;;13.92;70.21;101654.44;5077586;28;48298;-83
2023/09/24 01:47:38;;;;;;;;;15.33;14.00;;;;;13.86;70.00;101638.75;5078875;27;45520;-81
2023/09/24 01:50:06;;;;;;;;;15.33;15.33;;;;;14.01;69.75;101667.34;5078160;28;58784;-78
2023/09/24 01:52:33;;;;;;;;;15.00;14.33;;;;;13.96;70.28;101672.09;5079497;27;45188;-80
2023/09/24 01:54:59;;;;;;;;;19.33;14.00;;;;;13.94;70.49;101665.97;5078704;27;46014;-80
2023/09/24 01:57:24;;;;;;;;;17.33;15.33;;;;;13.87;70.88;101662.72;5079030;28;45372;-82
2023/09/24 01:59:50;;;;;;;;;19.00;17.50;;;;;13.66;71.59;101638.91;5079121;28;55490;-84
2023/09/24 02:02:15;;;;;;;;;15.33;13.67;;;;;13.86;71.23;101673.50;5078750;28;45503;-80
2023/09/24 02:04:41;;;;;;;;;20.75;16.50;;;;;13.82;71.25;101669.28;5079155;28;46101;-83
2023/09/24 02:07:08;;;;;;;;;21.75;20.50;;;;;13.77;71.69;101663.28;5078985;28;45342;-79
2023/09/24 02:09:35;;;;;;;;;15.33;12.67;;;;;13.74;71.19;101672.34;5079255;27;45365;-79
2023/09/24 02:12:00;;;;;;;;;17.00;15.50;;;;;13.74;71.64;101677.69;5074800;28;45532;-80
2023/09/24 02:14:26;;;;;;;;;17.50;14.25;;;;;13.65;71.62;101666.59;5058413;28;45270;-78
2023/09/24 02:16:51;;;;;;;;;17.00;16.00;;;;;13.61;71.61;101675.72;5063328;28;45443;-82
2023/09/24 02:19:17;;;;;;;;;12.00;12.00;;;;;13.58;72.01;101676.75;5077667;28;45276;-80
2023/09/24 02:21:43;;;;;;;;;13.33;13.33;;;;;13.53;72.08;101682.31;5079201;27;45266;-80
2023/09/24 02:24:08;;;;;;;;;15.67;13.00;;;;;13.53;72.15;101681.44;5078229;27;45365;-77
2023/09/24 02:26:34;;;;;;;;;13.00;12.00;;;;;13.41;72.54;101661.59;5077588;27;45429;-77
2023/09/24 02:28:59;;;;;;;;;12.67;12.67;;;;;13.40;72.83;101667.84;5076815;27;45305;-77
2023/09/24 02:31:26;;;;;;;;;15.25;13.25;;;;;13.45;72.50;101676.53;5078373;27;45503;-78
2023/09/24 02:33:51;;;;;;;;;17.00;14.67;;;;;13.41;73.10;101669.63;5078177;27;46167;-77
2023/09/24 02:36:17;;;;;;;;;19.00;16.00;;;;;13.43;73.21;101672.19;5077458;28;45301;-78
2023/09/24 02:38:43;;;;;;;;;14.67;13.67;;;;;13.11;73.31;101623.88;5077835;27;45384;-78
2023/09/24 02:41:10;;;;;;;;;22.00;15.00;;;;;13.23;73.12;101649.16;5076670;28;45414;-75
2023/09/24 02:43:37;;;;;;;;;18.33;15.00;;;;;13.37;72.87;101676.03;5077863;27;45327;-79
2023/09/24 02:46:03;;;;;;;;;14.50;14.50;;;;;13.29;73.21;101670.22;5077885;27;45544;-78
2023/09/24 02:48:28;;;;;;;;;21.75;16.75;;;;;13.28;73.56;101668.47;5075856;28;45567;-78
2023/09/24 02:50:54;;;;;;;;;17.25;14.50;;;;;13.31;73.56;101680.84;5077693;28;45454;-79
2023/09/24 02:53:19;;;;;;;;;13.25;9.75;;;;;13.23;73.41;101676.72;5077522;27;46147;-78
2023/09/24 02:55:45;;;;;;;;;14.00;13.50;;;;;13.24;73.47;101680.25;5077243;28;45371;-77
2023/09/24 02:58:13;;;;;;;;;19.25;14.25;;;;;13.19;73.72;101676.97;5077342;27;45319;-77
2023/09/24 03:00:41;;;;;;;;;20.33;13.67;;;;;13.23;73.63;101690.06;5077568;27;45607;-79
2023/09/24 03:03:09;;;;;;;;;14.25;13.75;;;;;13.19;73.98;101695.66;5077322;28;46000;-79
2023/09/24 03:05:38;;;;;;;;;15.75;14.75;;;;;13.20;73.81;101692.91;5077546;27;45311;-76
2023/09/24 03:08:05;;;;;;;;;15.50;12.00;;;;;13.16;74.09;101693.13;5075918;28;45290;-76
2023/09/24 03:10:32;;;;;;;;;10.75;10.75;;;;;13.13;74.24;101679.88;5077571;27;45226;-79
2023/09/24 03:12:58;;;;;;;;;14.00;12.67;;;;;13.09;74.15;101683.66;5077134;27;46205;-78
2023/09/24 03:15:24;;;;;;;;;21.50;13.75;;;;;13.08;73.59;101671.25;5076803;27;45482;-77
2023/09/24 03:17:50;;;;;;;;;13.50;12.25;;;;;13.11;73.13;101676.44;5075350;28;46838;-78
2023/09/24 03:20:22;;;;;;;;;16.00;13.00;;;;;13.13;73.13;101687.91;5077229;27;45627;-77
2023/09/24 03:22:49;;;;;;;;;13.67;10.67;;;;;13.06;74.02;101684.69;5076590;27;46178;-78
2023/09/24 03:25:19;;;;;;;;;11.75;11.75;;;;;12.92;73.38;101666.66;5076990;27;45413;-77
2023/09/24 03:27:45;;;;;;;;;12.50;12.50;;;;;12.86;73.89;101663.41;5075397;28;45303;-76
2023/09/24 03:30:13;;;;;;;;;10.50;9.00;;;;;13.02;73.84;101698.25;5077176;27;45338;-77
2023/09/24 03:32:40;;;;;;;;;15.00;10.00;;;;;12.98;73.44;101692.19;5075618;28;46211;-78
2023/09/24 03:35:08;;;;;;;;;13.00;13.00;;;;;13.03;73.71;101689.31;5077055;27;45345;-79
2023/09/24 03:37:34;;;;;;;;;13.67;11.00;;;;;13.00;73.56;101687.63;5076308;27;45531;-77
2023/09/24 03:39:59;;;;;;;;;13.33;13.33;;;;;12.95;73.25;101682.53;5076744;27;45169;-77
2023/09/24 03:42:24;;;;;;;;;11.25;11.25;;;;;12.99;73.76;101693.91;5076551;28;47122;-79
2023/09/24 03:44:50;;;;;;;;;12.25;12.25;;;;;12.98;73.61;101692.19;5075941;28;62524;-77
2023/09/24 03:47:16;;;;;;;;;7.25;7.00;;;;;12.83;73.35;101677.78;5076315;27;45322;-77
2023/09/24 03:49:42;;;;;;;;;13.25;11.00;;;;;12.87;73.55;101698.03;5075571;27;45453;-77
2023/09/24 03:52:10;;;;;;;;;14.75;10.00;;;;;12.87;73.96;101700.72;5075314;28;49065;-78
2023/09/24 03:54:38;;;;;;;;;11.25;10.25;;;;;12.81;73.91;101679.66;5076518;27;45386;-80
2023/09/24 03:57:05;;;;;;;;;10.50;9.75;;;;;12.74;73.78;101680.00;5076016;27;45535;-76
2023/09/24 03:59:35;;;;;;;;;15.25;13.50;;;;;12.82;74.13;101692.06;5076637;27;45694;-78
2023/09/24 04:02:00;;;;;;;;;10.67;9.00;;;;;12.84;73.87;101703.53;5076278;27;46237;-78
2023/09/24 04:04:26;;;;;;;;;13.00;13.00;;;;;12.79;73.91;101694.03;5076402;28;45254;-77
2023/09/24 04:06:51;;;;;;;;;11.67;10.67;;;;;12.82;73.99;101707.22;5074812;28;45485;-78
2023/09/24 04:09:17;;;;;;;;;11.00;10.00;;;;;12.69;73.75;101691.78;5075817;28;55218;-77
2023/09/24 04:11:42;;;;;;;;;12.00;10.33;;;;;12.79;73.93;101707.38;5074840;28;48275;-78
2023/09/24 04:14:08;;;;;;;;;9.00;7.00;;;;;12.78;73.95;101706.50;5075833;28;55120;-77
2023/09/24 04:16:34;;;;;;;;;11.33;7.00;;;;;12.68;73.80;101689.19;5076146;27;45285;-77
2023/09/24 04:18:59;;;;;;;;;12.33;10.00;;;;;12.73;74.03;101707.66;5075928;28;46586;-77
2023/09/24 04:21:25;;;;;;;;;12.00;10.75;;;;;12.67;74.36;101707.00;5091993;27;47311;-77
2023/09/24 04:23:51;;;;;;;;;13.50;10.75;;;;;12.64;75.10;101703.63;5076299;27;45260;-76
2023/09/24 04:26:21;;;;;;;;;9.75;9.75;;;;;12.57;74.79;101702.19;5075802;27;45305;-76
2023/09/24 04:28:48;;;;;;;;;10.75;10.00;;;;;12.56;75.79;101703.13;5076403;28;45357;-77
2023/09/24 04:31:14;;;;;;;;;11.00;10.00;;;;;12.48;75.35;101702.59;5074530;28;47131;-77
2023/09/24 04:33:41;;;;;;;;;11.33;11.33;;;;;12.48;75.90;101705.25;5076008;28;45303;-75
2023/09/24 04:36:06;;;;;;;;;14.50;11.75;;;;;12.46;75.69;101699.13;5076052;28;45307;-75
2023/09/24 04:38:31;;;;;;;;;3.00;1.00;;;;;12.38;75.47;101687.03;5076281;28;45553;-77
2023/09/24 04:40:57;;;;;;;;;10.75;10.25;;;;;12.47;75.82;101696.38;5075248;28;72652;-78
2023/09/24 04:43:22;;;;;;;;;13.25;12.25;;;;;12.45;75.57;101702.75;5076177;28;45283;-78
2023/09/24 04:45:48;;;;;;;;;12.75;11.00;;;;;12.38;75.96;101694.16;5076886;27;45204;-77
2023/09/24 04:48:13;;;;;;;;;11.50;11.00;;;;;12.30;76.05;101694.50;5077504;27;46020;-79
2023/09/24 04:50:38;;;;;;;;;19.25;12.50;;;;;11.92;76.53;101634.03;5076774;28;46292;-78
2023/09/24 04:53:06;;;;;;;;;15.75;11.00;;;;;12.28;76.40;101701.72;5078543;28;67606;-76
2023/09/24 04:55:32;;;;;;;;;11.00;11.00;;;;;12.09;76.40;101680.34;5080757;28;45679;-78
2023/09/24 04:57:57;;;;;;;;;11.50;11.50;;;;;12.19;77.12;101704.78;5080263;27;45428;-78
2023/09/24 05:00:22;;;;;;;;;9.25;9.00;;;;;12.11;76.88;101682.97;5077965;28;71153;-77
2023/09/24 05:02:48;;;;;;;;;9.75;9.75;;;;;12.11;76.58;101693.63;5078673;27;45407;-77
2023/09/24 05:05:15;;;;;;;;;10.75;9.50;;;;;12.00;77.06;101672.78;5078683;28;55814;-77
2023/09/24 05:07:40;;;;;;;;;15.25;11.50;;;;;12.14;76.93;101695.28;5079902;28;45501;-75
2023/09/24 05:10:07;;;;;;;;;10.50;9.25;;;;;12.14;76.76;101703.28;5078376;27;45369;-76
2023/09/24 05:12:33;;;;;;;;;8.75;8.25;;;;;12.10;77.05;101703.38;5079313;27;45297;-78
2023/09/24 05:14:58;;;;;;;;;10.00;9.00;;;;;12.09;77.14;101701.66;5079124;27;45244;-78
2023/09/24 05:17:23;;;;;;;;;9.25;9.25;;;;;12.13;77.40;101709.56;5078102;28;45435;-77
2023/09/24 05:19:49;;;;;;;;;12.00;11.00;;;;;12.05;77.62;101700.06;5078222;27;45612;-77
2023/09/24 05:22:14;;;;;;;;;11.00;10.25;;;;;12.08;77.17;101710.59;5078899;27;45400;-76
2023/09/24 05:24:40;;;;;;;;;8.50;8.50;;;;;12.05;77.39;101713.41;5079061;27;45377;-76
2023/09/24 05:27:05;;;;;;;;;10.75;10.00;;;;;11.94;77.14;101696.16;5079587;27;45389;-77
2023/09/24 05:29:30;;;;;;;;;10.00;9.75;;;;;11.88;77.37;101691.97;5078635;28;45527;-78
2023/09/24 05:31:55;;;;;;;;;9.75;9.75;;;;;11.89;77.61;101700.84;5078652;28;45427;-77
2023/09/24 05:34:21;;;;;;;;;10.50;6.75;;;;;11.91;77.56;101704.28;5077711;28;45321;-78
2023/09/24 05:36:51;;;;;;;;;9.00;9.00;;;;;11.96;77.70;101710.28;5079734;27;45783;-79
2023/09/24 05:39:17;;;;;;;;;11.00;10.00;;;;;11.96;77.19;101711.13;5078808;27;45488;-77
2023/09/24 05:41:43;;;;;;;;;11.25;9.25;;;;;11.80;77.32;101689.63;5079045;28;45222;-77
2023/09/24 05:44:08;;;;;;;;;12.25;9.50;;;;;11.72;77.41;101675.75;5079068;28;45215;-79
2023/09/24 05:46:33;;;;;;;;;8.50;8.00;;;;;11.92;77.52;101714.03;5079016;27;45416;-76
2023/09/24 05:49:00;;;;;;;;;9.50;9.50;;;;;11.97;77.42;101718.19;5077922;28;45466;-74
2023/09/24 05:51:26;;;;;;;;;12.25;8.75;;;;;11.97;77.56;101712.00;5093889;27;45425;-77
2023/09/24 05:53:54;;;;;;;;;11.50;11.50;;;;;11.91;77.30;101709.63;5078453;27;45403;-77
2023/09/24 05:56:19;;;;;;;;;10.00;10.00;;;;;11.96;77.25;101720.94;5078562;27;45229;-77
2023/09/24 05:58:45;;;;;;;;;8.75;8.75;;;;;12.05;77.09;101741.88;5077648;28;45428;-76
2023/09/24 06:01:17;;;;;;;;;8.75;8.00;;;;;11.96;77.12;101713.81;5077935;27;45173;-78
2023/09/24 06:03:42;;;;;;;;;5.75;5.00;;;;;12.02;76.72;101710.03;5078169;27;45384;-78
2023/09/24 06:06:12;;;;;;;;;13.50;10.75;;;;;12.00;76.62;101711.91;5078149;28;45405;-81
2023/09/24 06:08:37;;;;;;;;;9.50;7.25;;;;;11.90;76.72;101690.09;5077637;28;45473;-77
2023/09/24 06:11:04;;;;;;;;;8.50;8.25;;;;;12.23;76.41;101737.50;5077806;27;45460;-77
2023/09/24 06:13:30;;;;;;;;;11.00;9.00;;;;;12.18;75.95;101729.72;5078431;27;45515;-78
2023/09/24 06:15:59;;;;;;;;;11.75;10.00;;;;;12.28;76.20;101735.53;5078280;27;45490;-77
2023/09/24 06:18:25;;;;;;;;;8.00;7.50;;;;;12.29;76.27;101735.44;5077562;27;46088;-76
2023/09/24 06:20:50;;;;;;;;;9.50;8.75;;;;;12.34;75.30;101728.09;5076857;27;45358;-78
2023/09/24 06:23:15;;;;;;;;;11.75;10.25;;;;;12.41;75.37;101736.72;5078180;28;45341;-78
2023/09/24 06:25:41;;;;;;;;;9.00;9.00;;;;;12.52;75.24;101749.56;5078182;28;45610;-77
2023/09/24 06:28:09;;;;;;;;;12.75;10.00;;;;;12.54;74.99;101755.69;5077745;27;45350;-76
2023/09/24 06:30:36;;;;;;;;;12.00;10.25;;;;;12.58;74.72;101767.94;5077218;27;45487;-76
2023/09/24 06:33:01;;;;;;;;;9.25;9.25;;;;;12.36;74.86;101738.69;5078005;27;45246;-76
2023/09/24 06:35:27;;;;;;;;;9.00;9.00;;;;;12.52;74.31;101762.91;5077989;28;45540;-77
2023/09/24 06:37:52;;;;;;;;;11.00;10.00;;;;;12.53;74.37;101762.84;5077873;27;45973;-79
2023/09/24 06:40:17;;;;;;;;;10.50;8.00;;;;;12.45;74.33;101751.63;5076609;28;61752;-77
2023/09/24 06:42:43;;;;;;;;;10.00;9.25;;;;;12.59;74.33;101764.34;5077959;28;45365;-77
2023/09/24 06:45:08;;;;;;;;;10.00;9.50;;;;;12.69;73.89;101761.19;5077313;28;53072;-76
2023/09/24 06:47:35;;;;;;;;;9.25;6.00;;;;;12.74;73.43;101758.28;5076301;28;46841;-76
2023/09/24 06:50:00;;;;;;;;;11.50;10.00;;;;;12.63;73.73;101736.56;5088219;27;45417;-78
2023/09/24 06:52:30;;;;;;;;;13.25;11.75;;;;;12.77;72.98;101739.47;5066606;27;45922;-79
2023/09/24 06:54:55;;;;;;;;;10.50;10.50;;;;;13.24;71.98;101745.22;5063895;28;45623;-79
2023/09/24 06:57:21;;;;;;;;;13.00;9.00;;;;;13.41;71.14;101755.13;5067320;28;45473;-77
2023/09/24 06:59:46;;;;;;;;;8.75;8.75;;;;;13.15;70.72;101726.06;5074245;27;45377;-78
2023/09/24 07:02:14;;;;;;;;;10.75;7.25;;;;;13.15;71.29;101756.34;5076761;28;45534;-78
2023/09/24 07:04:39;;;;;;;;;11.00;9.00;;;;;13.10;71.17;101766.38;5063372;27;45579;-76
2023/09/24 07:07:04;;;;;;;;;7.00;7.00;;;;;12.99;71.53;101748.19;5058889;28;46122;-78
2023/09/24 07:09:29;;;;;;;;;12.75;11.50;;;;;12.89;71.66;101722.00;5090076;27;45528;-78
2023/09/24 07:11:55;;;;;;;;;11.75;10.25;;;;;12.92;71.19;101730.75;5069486;27;45263;-77
2023/09/24 07:14:20;;;;;;;;;9.50;6.50;;;;;13.03;70.85;101748.94;5065384;28;45360;-77
2023/09/24 07:16:46;;;;;;;;;11.00;9.67;;;;;13.16;71.18;101759.91;5075348;28;47794;-83
2023/09/24 07:19:11;;;;;;;;;8.50;8.50;;;;;13.13;70.74;101744.00;5074596;27;45335;-80
2023/09/24 07:21:37;;;;;;;;;9.67;9.33;;;;;13.24;70.21;101768.41;5063902;28;45365;-82
2023/09/24 07:24:03;;;;;;;;;9.67;9.33;;;;;13.25;70.17;101765.66;5077262;28;45621;-80
2023/09/24 07:26:28;;;;;;;;;7.00;7.00;;;;;13.29;70.27;101766.41;5070587;28;47346;-77
2023/09/24 07:28:54;;;;;;;;;11.67;8.67;;;;;13.51;69.76;101766.19;5076537;27;45415;-80
2023/09/24 07:31:22;;;;;;;;;13.25;7.50;;;;;13.53;68.71;101759.81;5076750;28;45513;-79
2023/09/24 07:33:49;;;;;;;;;12.00;7.50;;;;;13.51;68.37;101751.03;5069155;28;45467;-78
2023/09/24 07:36:15;;;;;;;;;10.00;7.67;;;;;13.60;68.06;101764.88;5067201;28;47423;-78
2023/09/24 07:38:40;;;;;;;;;13.67;9.33;;;;;13.50;68.53;101741.28;5074266;28;45310;-81
2023/09/24 07:41:07;;;;;;;;;7.00;7.00;;;;;13.52;67.93;101751.88;5059586;27;45306;-81
2023/09/24 07:43:34;;;;;;;;;8.00;7.00;;;;;13.63;68.09;101760.25;5071125;27;45638;-77
2023/09/24 07:46:00;;;;;;;;;7.00;5.33;;;;;13.64;67.98;101745.06;5068703;27;46710;-78
2023/09/24 07:48:25;;;;;;;;;8.33;6.00;;;;;13.75;67.51;101764.97;5073950;28;45712;-81
2023/09/24 07:50:55;;;;;;;;;10.00;7.00;;;;;13.74;67.40;101757.03;5060809;27;45518;-80
2023/09/24 07:53:22;;;;;;;;;8.33;8.33;;;;;13.88;66.98;101771.41;5060516;28;45304;-80
2023/09/24 07:56:07;;;;;;;;;7.00;7.00;;;;;13.86;66.96;101759.09;5068621;28;45472;-76
2023/09/24 07:58:33;;;;;;;;;7.33;7.00;;;;;13.86;66.09;101748.38;5063642;27;45427;-76
2023/09/24 08:01:07;;;;;;;;;11.00;6.00;;;;;13.97;65.85;101759.41;5064597;27;45346;-80
2023/09/24 08:03:33;;;;;;;;;7.00;5.67;;;;;13.93;65.58;101739.09;5065706;28;45447;-80
2023/09/24 08:05:59;;;;;;;;;6.33;5.67;;;;;14.13;65.25;101771.03;5066046;28;46409;-78
2023/09/24 08:08:26;;;;;;;;;6.00;4.67;;;;;14.22;64.91;101774.19;5075257;27;46972;-79
2023/09/24 08:10:51;;;;;;;;;7.33;7.33;;;;;14.35;64.55;101775.25;5062851;28;45468;-81
2023/09/24 08:13:19;;;;;;;;;4.00;4.00;;;;;14.40;64.89;101768.69;5071085;28;45555;-80
2023/09/24 08:15:45;;;;;;;;;4.00;3.00;;;;;14.45;64.03;101774.72;5075149;28;45293;-81
2023/09/24 08:18:11;;;;;;;;;6.00;5.00;;;;;14.46;63.81;101772.91;5073327;27;45519;-77
2023/09/24 08:20:37;;;;;;;;;5.67;5.67;;;;;14.56;63.92;101778.63;5076093;27;45358;-81
2023/09/24 08:23:03;;;;;;;;;11.00;5.00;;;;;14.51;63.09;101759.28;5076321;27;45498;-82
2023/09/24 08:25:29;;;;;;;;;6.00;6.00;;;;;14.69;63.60;101780.53;5076446;27;46285;-80
2023/09/24 08:27:55;;;;;;;;;11.00;6.00;;;;;14.74;63.29;101761.56;5079423;27;45468;-78
2023/09/24 08:30:20;;;;;;;;;7.33;6.33;;;;;14.74;62.52;101742.81;5080258;27;45438;-81
2023/09/24 08:32:46;;;;;;;;;5.33;5.00;;;;;14.74;62.36;101756.22;5080397;28;45454;-82
2023/09/24 08:35:11;;;;;;;;;6.00;4.67;;;;;14.86;62.21;101776.09;5079886;27;46001;-81
2023/09/24 08:37:36;;;;;;;;;6.00;6.00;;;;;14.97;62.00;101773.66;5079744;27;45399;-83
2023/09/24 08:40:03;;;;;;;;;5.67;5.00;;;;;15.14;62.27;101778.97;5079852;28;45344;-80
2023/09/24 08:42:31;;;;;;;;;7.33;6.00;;;;;15.24;61.41;101777.50;5079811;27;45487;-83
2023/09/24 08:45:10;;;;;;;;;6.00;5.00;;;;;15.31;61.22;101776.19;5079736;27;45238;-82
2023/09/24 08:47:38;;;;;;;;;8.00;8.00;;;;;15.19;61.33;101746.53;5080061;27;45461;-82
2023/09/24 08:50:04;;;;;;;;;7.00;7.00;;;;;15.46;61.69;101773.59;5079413;27;45410;-80
2023/09/24 08:52:40;;;;;;;;;4.67;4.67;;;;;15.45;61.20;101748.59;5079803;27;45404;-83
2023/09/24 08:55:10;;;;;;;;;7.00;7.00;;;;;15.46;60.58;101755.69;5079535;27;46154;-80
2023/09/24 08:57:40;;;;;;;;;7.00;4.00;;;;;15.52;60.24;101749.97;5078125;28;45814;-82
2023/09/24 09:00:10;;;;;;;;;5.67;5.67;;;;;15.59;59.96;101769.22;5079502;28;45442;-83
2023/09/24 09:02:36;;;;;;;;;4.67;3.33;;;;;15.44;59.25;101732.59;5079713;27;45492;-80
2023/09/24 09:05:04;;;;;;;;;5.00;5.00;;;;;15.46;59.51;101736.03;5079340;27;45507;-81
2023/09/24 09:07:30;;;;;;;;;3.00;3.00;;;;;15.62;59.90;101755.66;5079881;27;45419;-81
2023/09/24 09:09:59;;;;;;;;;6.33;4.00;;;;;15.58;59.68;101754.97;5079665;28;45361;-80
2023/09/24 09:12:26;;;;;;;;;7.00;5.33;;;;;15.64;59.55;101753.78;5079587;27;45363;-79
2023/09/24 09:14:52;;;;;;;;;4.33;4.33;;;;;15.75;59.05;101759.34;5078924;27;45678;-79
2023/09/24 09:17:17;;;;;;;;;4.67;4.00;;;;;15.76;59.44;101755.75;5079302;27;45867;-78
2023/09/24 09:19:55;;;;;;;;;5.00;5.00;;;;;15.75;59.05;101745.94;5079144;27;45385;-80
2023/09/24 09:22:22;;;;;;;;;5.33;5.33;;;;;15.87;58.96;101745.22;5079439;27;45504;-80
2023/09/24 09:25:00;;;;;;;;;6.67;5.00;;;;;15.73;58.88;101726.41;5078937;27;46120;-80
2023/09/24 09:27:37;;;;;;;;;5.67;4.67;;;;;15.62;58.95;101694.00;5079263;27;45471;-79
2023/09/24 09:30:17;;;;;;;;;4.00;4.00;;;;;15.92;58.88;101747.66;5079150;27;45394;-79
2023/09/24 09:32:44;;;;;;;;;6.67;6.00;;;;;15.84;58.80;101712.34;5079358;28;45580;-79
2023/09/24 09:35:10;;;;;;;;;4.00;4.00;;;;;15.99;58.56;101729.34;5078996;27;45238;-79
2023/09/24 09:37:40;;;;;;;;;4.67;4.67;;;;;16.16;58.05;101739.94;5078674;27;45388;-79
2023/09/24 09:40:09;;;;;;;;;7.00;5.67;;;;;16.22;58.01;101731.50;5078147;27;45370;-81
2023/09/24 09:42:37;;;;;;;;;8.00;8.00;;;;;16.46;58.03;101748.78;5078766;27;45523;-80
2023/09/24 09:45:07;;;;;;;;;6.00;5.00;;;;;16.55;57.05;101741.97;5078282;27;46128;-79
2023/09/24 09:47:34;;;;;;;;;5.00;5.00;;;;;16.67;57.43;101737.66;5078689;27;45259;-80
2023/09/24 09:50:00;;;;;;;;;3.67;3.67;;;;;16.60;56.59;101712.13;5078863;27;45292;-77
2023/09/24 09:52:44;;;;;;;;;4.00;3.00;;;;;16.68;56.47;101724.16;5078076;28;45607;-79
2023/09/24 09:55:10;;;;;;;;;7.33;3.00;;;;;16.67;56.39;101713.47;5078798;27;45511;-78
2023/09/24 09:57:37;;;;;;;;;5.00;5.00;;;;;16.79;56.73;101721.63;5079113;27;45399;-79
2023/09/24 10:00:11;;;;;;;;;8.00;6.00;;;;;16.85;56.67;101715.00;5078849;27;45377;-80
2023/09/24 10:02:42;;;;;;;;;5.00;3.67;;;;;16.80;56.00;101698.34;5078811;27;45354;-78
2023/09/24 10:05:11;;;;;;;;;6.00;5.00;;;;;17.04;55.18;101718.22;5078606;27;45358;-79
2023/09/24 10:07:40;;;;;;;;;4.67;3.00;;;;;17.14;54.24;101706.88;5078334;27;45393;-79
2023/09/24 10:10:32;;;;;;;;;4.00;4.00;;;;;17.15;54.58;101704.06;5078104;28;45346;-79
2023/09/24 10:13:04;;;;;;;;;2.67;2.67;;;;;17.20;53.46;101690.34;5070493;27;45360;-78
2023/09/24 10:15:30;;;;;;;;;2.00;2.00;;;;;17.27;51.29;101687.13;5078070;27;45591;-78
2023/09/24 10:18:25;;;;;;;;;4.67;3.33;;;;;17.60;51.11;101702.84;5078152;28;45397;-79
2023/09/24 10:20:55;;;;;;;;;3.00;2.00;;;;;17.71;50.55;101691.38;5064849;27;45455;-81
2023/09/24 10:23:39;;;;;;;;;5.00;3.00;;;;;17.79;50.49;101698.91;5078393;27;45298;-82
2023/09/24 10:26:05;;;;;;;;;2.33;2.33;;;;;17.94;50.58;101692.47;5077924;27;45396;-77
2023/09/24 10:28:48;;;;;;;;;4.00;2.00;;;;;18.22;49.96;101683.31;5078839;27;45291;-79
2023/09/24 10:31:13;;;;;;;;;3.67;3.00;;;;;18.24;48.94;101616.78;5079258;28;45476;-80
2023/09/24 10:33:51;;;;;;;;;2.00;2.00;;;;;18.73;48.41;101670.66;5079262;27;45341;-79
2023/09/24 10:36:21;;;;;;;;;5.00;3.00;;;;;18.78;47.53;101640.69;5076502;28;47722;-81
2023/09/24 10:39:13;;;;;;;;;8.33;6.67;;;;;19.25;47.17;101671.31;5077860;27;45424;-79
2023/09/24 10:42:09;;;;;;;;;3.67;3.67;;;;;19.51;45.54;101661.22;5077798;27;45337;-81
2023/09/24 10:44:36;;;;;;;;;3.33;3.33;;;;;19.66;45.12;101655.56;5077748;28;45956;-78
2023/09/24 10:47:23;;;;;;;;;3.67;3.00;;;;;20.10;45.44;101663.88;5077692;27;45602;-81
2023/09/24 10:49:49;;;;;;;;;4.00;3.00;;;;;20.17;43.62;101648.88;5076723;28;45490;-83
2023/09/24 10:52:15;;;;;;;;;2.67;2.67;;;;;20.28;42.20;101640.78;5077431;27;45433;-81
2023/09/24 10:54:41;;;;;;;;;2.33;2.33;;;;;20.56;40.90;101639.44;5078537;27;45584;-78
2023/09/24 10:57:07;;;;;;;;;2.33;2.33;;;;;20.62;41.51;101638.94;5077456;27;46178;-80
2023/09/24 10:59:34;;;;;;;;;3.00;3.00;;;;;20.63;40.83;101618.19;5077591;27;45210;-78
2023/09/24 11:02:16;;;;;;;;;2.00;2.00;;;;;20.38;40.29;101576.06;5077928;27;45448;-77
2023/09/24 11:04:41;;;;;;;;;2.67;2.67;;;;;20.75;40.42;101606.38;5077757;28;45614;-80
2023/09/24 11:07:10;;;;;;;;;3.00;3.00;;;;;21.32;41.01;101638.50;5078074;27;46119;-81
2023/09/24 11:09:36;;;;;;;;;3.00;3.00;;;;;21.71;39.94;101645.06;5078453;27;45547;-78
2023/09/24 11:12:08;;;;;;;;;1.00;1.00;;;;;21.83;39.26;101623.34;5078776;27;45337;-80
2023/09/24 11:14:33;;;;;;;;;3.33;1.67;;;;;22.09;38.28;101627.34;5079214;27;45428;-81
2023/09/24 11:16:59;;;;;;;;;2.67;2.67;;;;;22.41;38.07;101634.50;5079005;28;45301;-82
2023/09/24 11:19:45;;;;;;;;;1.67;1.67;;;;;22.62;37.37;101610.84;5078403;27;45160;-81